sensor_id;sensor_type;location;lat;lon;timestamp;P1;durP1;ratioP1;P2;durP2;ratioP2
21038;SDS011;10678;51.002;4.786;2023-03-03T00:00:51;30.30;;;13.77;;
21038;SDS011;10678;51.002;4.786;2023-03-03T00:03:18;26.07;;;13.23;;
21038;SDS011;10678;51.002;4.786;2023-03-03T00:05:49;24.60;;;12.47;;
21038;SDS011;10678;51.002;4.786;2023-03-03T00:08:14;26.80;;;13.53;;
21038;SDS011;10678;51.002;4.786;2023-03-03T00:10:41;26.00;;;13.17;;
21038;SDS011;10678;51.002;4.786;2023-03-03T00:13:17;24.13;;;12.47;;
21038;SDS011;10678;51.002;4.786;2023-03-03T00:15:45;26.53;;;12.40;;
21038;SDS011;10678;51.002;4.786;2023-03-03T00:20:47;28.37;;;14.23;;
21038;SDS011;10678;51.002;4.786;2023-03-03T00:26:03;24.43;;;13.03;;
21038;SDS011;10678;51.002;4.786;2023-03-03T00:28:58;25.47;;;12.63;;
21038;SDS011;10678;51.002;4.786;2023-03-03T00:31:34;26.90;;;12.70;;
21038;SDS011;10678;51.002;4.786;2023-03-03T00:34:18;25.47;;;13.13;;
21038;SDS011;10678;51.002;4.786;2023-03-03T00:36:55;26.90;;;12.43;;
21038;SDS011;10678;51.002;4.786;2023-03-03T00:39:36;24.20;;;11.87;;
21038;SDS011;10678;51.002;4.786;2023-03-03T00:42:09;28.30;;;13.33;;
21038;SDS011;10678;51.002;4.786;2023-03-03T00:44:41;28.93;;;13.97;;
21038;SDS011;10678;51.002;4.786;2023-03-03T00:47:25;27.87;;;12.63;;
21038;SDS011;10678;51.002;4.786;2023-03-03T00:49:51;24.57;;;12.87;;
21038;SDS011;10678;51.002;4.786;2023-03-03T00:52:19;29.23;;;13.73;;
21038;SDS011;10678;51.002;4.786;2023-03-03T00:54:45;27.83;;;13.63;;
21038;SDS011;10678;51.002;4.786;2023-03-03T00:57:11;26.33;;;13.10;;
21038;SDS011;10678;51.002;4.786;2023-03-03T00:59:37;25.87;;;13.43;;
21038;SDS011;10678;51.002;4.786;2023-03-03T01:02:03;27.50;;;13.97;;
21038;SDS011;10678;51.002;4.786;2023-03-03T01:04:29;27.67;;;12.77;;
21038;SDS011;10678;51.002;4.786;2023-03-03T01:06:54;25.60;;;13.33;;
21038;SDS011;10678;51.002;4.786;2023-03-03T01:09:20;28.37;;;13.57;;
21038;SDS011;10678;51.002;4.786;2023-03-03T01:11:46;26.17;;;13.40;;
21038;SDS011;10678;51.002;4.786;2023-03-03T01:14:12;27.03;;;14.03;;
21038;SDS011;10678;51.002;4.786;2023-03-03T01:16:37;26.30;;;12.10;;
21038;SDS011;10678;51.002;4.786;2023-03-03T01:19:05;28.73;;;13.50;;
21038;SDS011;10678;51.002;4.786;2023-03-03T01:21:31;26.67;;;13.17;;
21038;SDS011;10678;51.002;4.786;2023-03-03T01:23:56;30.97;;;13.40;;
21038;SDS011;10678;51.002;4.786;2023-03-03T01:26:22;27.20;;;14.00;;
21038;SDS011;10678;51.002;4.786;2023-03-03T01:28:47;26.70;;;12.67;;
21038;SDS011;10678;51.002;4.786;2023-03-03T01:31:13;28.40;;;14.03;;
21038;SDS011;10678;51.002;4.786;2023-03-03T01:33:38;31.93;;;14.73;;
21038;SDS011;10678;51.002;4.786;2023-03-03T01:36:04;31.90;;;14.90;;
21038;SDS011;10678;51.002;4.786;2023-03-03T01:38:30;32.13;;;15.70;;
21038;SDS011;10678;51.002;4.786;2023-03-03T01:40:56;32.50;;;15.73;;
21038;SDS011;10678;51.002;4.786;2023-03-03T01:43:27;36.87;;;15.23;;
21038;SDS011;10678;51.002;4.786;2023-03-03T01:48:24;35.97;;;16.47;;
21038;SDS011;10678;51.002;4.786;2023-03-03T01:51:10;31.33;;;15.83;;
21038;SDS011;10678;51.002;4.786;2023-03-03T01:54:00;36.60;;;17.20;;
21038;SDS011;10678;51.002;4.786;2023-03-03T01:56:28;36.23;;;17.20;;
21038;SDS011;10678;51.002;4.786;2023-03-03T01:58:57;30.13;;;15.63;;
21038;SDS011;10678;51.002;4.786;2023-03-03T02:01:26;35.73;;;16.53;;
21038;SDS011;10678;51.002;4.786;2023-03-03T02:03:54;33.23;;;16.60;;
21038;SDS011;10678;51.002;4.786;2023-03-03T02:06:24;33.47;;;17.97;;
21038;SDS011;10678;51.002;4.786;2023-03-03T02:09:03;34.63;;;16.53;;
21038;SDS011;10678;51.002;4.786;2023-03-03T02:12:06;34.57;;;16.27;;
21038;SDS011;10678;51.002;4.786;2023-03-03T02:14:35;34.37;;;15.43;;
21038;SDS011;10678;51.002;4.786;2023-03-03T02:17:01;32.80;;;16.57;;
21038;SDS011;10678;51.002;4.786;2023-03-03T02:19:30;36.23;;;16.33;;
21038;SDS011;10678;51.002;4.786;2023-03-03T02:22:16;35.83;;;16.77;;
21038;SDS011;10678;51.002;4.786;2023-03-03T02:24:51;35.13;;;17.43;;
21038;SDS011;10678;51.002;4.786;2023-03-03T02:27:26;33.13;;;15.67;;
21038;SDS011;10678;51.002;4.786;2023-03-03T02:29:55;33.37;;;14.77;;
21038;SDS011;10678;51.002;4.786;2023-03-03T02:32:21;33.67;;;16.07;;
21038;SDS011;10678;51.002;4.786;2023-03-03T02:34:48;29.13;;;13.83;;
21038;SDS011;10678;51.002;4.786;2023-03-03T02:37:15;31.13;;;15.07;;
21038;SDS011;10678;51.002;4.786;2023-03-03T02:39:42;38.13;;;16.33;;
21038;SDS011;10678;51.002;4.786;2023-03-03T02:44:37;31.73;;;15.10;;
21038;SDS011;10678;51.002;4.786;2023-03-03T02:47:03;30.30;;;13.67;;
21038;SDS011;10678;51.002;4.786;2023-03-03T02:49:29;31.53;;;15.73;;
21038;SDS011;10678;51.002;4.786;2023-03-03T02:51:57;35.97;;;16.20;;
21038;SDS011;10678;51.002;4.786;2023-03-03T02:54:24;29.83;;;14.70;;
21038;SDS011;10678;51.002;4.786;2023-03-03T02:56:51;30.10;;;15.30;;
21038;SDS011;10678;51.002;4.786;2023-03-03T02:59:17;28.43;;;14.27;;
21038;SDS011;10678;51.002;4.786;2023-03-03T03:01:43;38.17;;;17.20;;
21038;SDS011;10678;51.002;4.786;2023-03-03T03:04:10;35.87;;;16.00;;
21038;SDS011;10678;51.002;4.786;2023-03-03T03:06:46;32.60;;;16.80;;
21038;SDS011;10678;51.002;4.786;2023-03-03T03:09:13;43.13;;;19.97;;
21038;SDS011;10678;51.002;4.786;2023-03-03T03:11:39;39.83;;;18.27;;
21038;SDS011;10678;51.002;4.786;2023-03-03T03:14:06;45.53;;;20.60;;
21038;SDS011;10678;51.002;4.786;2023-03-03T03:16:33;43.90;;;18.97;;
21038;SDS011;10678;51.002;4.786;2023-03-03T03:18:59;49.40;;;20.10;;
21038;SDS011;10678;51.002;4.786;2023-03-03T03:21:25;43.60;;;19.10;;
21038;SDS011;10678;51.002;4.786;2023-03-03T03:23:51;43.93;;;20.57;;
21038;SDS011;10678;51.002;4.786;2023-03-03T03:26:17;50.27;;;20.70;;
21038;SDS011;10678;51.002;4.786;2023-03-03T03:28:45;52.60;;;21.67;;
21038;SDS011;10678;51.002;4.786;2023-03-03T03:31:11;40.97;;;18.97;;
21038;SDS011;10678;51.002;4.786;2023-03-03T03:33:37;47.23;;;20.43;;
21038;SDS011;10678;51.002;4.786;2023-03-03T03:36:02;45.67;;;19.53;;
21038;SDS011;10678;51.002;4.786;2023-03-03T03:38:30;39.87;;;18.00;;
21038;SDS011;10678;51.002;4.786;2023-03-03T03:40:57;44.20;;;20.07;;
21038;SDS011;10678;51.002;4.786;2023-03-03T03:43:23;41.53;;;18.57;;
21038;SDS011;10678;51.002;4.786;2023-03-03T03:45:49;42.10;;;19.57;;
21038;SDS011;10678;51.002;4.786;2023-03-03T03:48:14;40.27;;;19.37;;
21038;SDS011;10678;51.002;4.786;2023-03-03T03:50:41;36.53;;;17.23;;
21038;SDS011;10678;51.002;4.786;2023-03-03T03:53:07;43.10;;;18.97;;
21038;SDS011;10678;51.002;4.786;2023-03-03T03:55:33;44.97;;;19.13;;
21038;SDS011;10678;51.002;4.786;2023-03-03T03:57:58;42.03;;;19.50;;
21038;SDS011;10678;51.002;4.786;2023-03-03T04:00:24;41.17;;;20.10;;
21038;SDS011;10678;51.002;4.786;2023-03-03T04:02:50;39.73;;;18.17;;
21038;SDS011;10678;51.002;4.786;2023-03-03T04:05:16;42.80;;;18.90;;
21038;SDS011;10678;51.002;4.786;2023-03-03T04:07:42;42.87;;;19.43;;
21038;SDS011;10678;51.002;4.786;2023-03-03T04:10:08;45.53;;;19.60;;
21038;SDS011;10678;51.002;4.786;2023-03-03T04:12:34;43.33;;;19.80;;
21038;SDS011;10678;51.002;4.786;2023-03-03T04:15:09;42.47;;;19.10;;
21038;SDS011;10678;51.002;4.786;2023-03-03T04:17:36;39.23;;;17.57;;
21038;SDS011;10678;51.002;4.786;2023-03-03T04:20:02;40.90;;;18.73;;
21038;SDS011;10678;51.002;4.786;2023-03-03T04:22:29;38.77;;;19.30;;
21038;SDS011;10678;51.002;4.786;2023-03-03T04:24:59;41.10;;;18.73;;
21038;SDS011;10678;51.002;4.786;2023-03-03T04:27:28;42.23;;;18.63;;
21038;SDS011;10678;51.002;4.786;2023-03-03T04:29:57;46.70;;;19.23;;
21038;SDS011;10678;51.002;4.786;2023-03-03T04:32:23;40.43;;;18.63;;
21038;SDS011;10678;51.002;4.786;2023-03-03T04:34:49;38.23;;;18.57;;
21038;SDS011;10678;51.002;4.786;2023-03-03T04:37:15;37.00;;;18.77;;
21038;SDS011;10678;51.002;4.786;2023-03-03T04:39:40;42.07;;;18.13;;
21038;SDS011;10678;51.002;4.786;2023-03-03T04:42:06;35.80;;;18.17;;
21038;SDS011;10678;51.002;4.786;2023-03-03T04:44:31;43.13;;;18.40;;
21038;SDS011;10678;51.002;4.786;2023-03-03T04:46:57;38.90;;;18.70;;
21038;SDS011;10678;51.002;4.786;2023-03-03T04:49:23;38.30;;;18.40;;
21038;SDS011;10678;51.002;4.786;2023-03-03T04:51:48;39.70;;;19.77;;
21038;SDS011;10678;51.002;4.786;2023-03-03T04:54:14;37.77;;;18.60;;
21038;SDS011;10678;51.002;4.786;2023-03-03T04:56:40;41.17;;;20.17;;
21038;SDS011;10678;51.002;4.786;2023-03-03T04:59:05;37.63;;;17.30;;
21038;SDS011;10678;51.002;4.786;2023-03-03T05:01:31;38.10;;;18.87;;
21038;SDS011;10678;51.002;4.786;2023-03-03T05:03:57;39.97;;;19.30;;
21038;SDS011;10678;51.002;4.786;2023-03-03T05:06:22;39.73;;;18.53;;
21038;SDS011;10678;51.002;4.786;2023-03-03T05:08:48;42.10;;;17.70;;
21038;SDS011;10678;51.002;4.786;2023-03-03T05:11:14;35.00;;;18.33;;
21038;SDS011;10678;51.002;4.786;2023-03-03T05:13:39;36.63;;;17.33;;
21038;SDS011;10678;51.002;4.786;2023-03-03T05:16:05;40.70;;;18.93;;
21038;SDS011;10678;51.002;4.786;2023-03-03T05:18:31;38.93;;;18.33;;
21038;SDS011;10678;51.002;4.786;2023-03-03T05:20:57;35.53;;;18.03;;
21038;SDS011;10678;51.002;4.786;2023-03-03T05:23:22;33.87;;;18.43;;
21038;SDS011;10678;51.002;4.786;2023-03-03T05:25:48;39.53;;;18.77;;
21038;SDS011;10678;51.002;4.786;2023-03-03T05:28:14;41.90;;;19.77;;
21038;SDS011;10678;51.002;4.786;2023-03-03T05:30:41;43.47;;;19.10;;
21038;SDS011;10678;51.002;4.786;2023-03-03T05:33:06;38.53;;;19.20;;
21038;SDS011;10678;51.002;4.786;2023-03-03T05:35:32;40.73;;;18.50;;
21038;SDS011;10678;51.002;4.786;2023-03-03T05:37:58;39.53;;;18.23;;
21038;SDS011;10678;51.002;4.786;2023-03-03T05:40:24;38.87;;;18.37;;
21038;SDS011;10678;51.002;4.786;2023-03-03T05:42:51;43.30;;;17.93;;
21038;SDS011;10678;51.002;4.786;2023-03-03T05:45:17;39.50;;;18.23;;
21038;SDS011;10678;51.002;4.786;2023-03-03T05:47:46;38.03;;;17.80;;
21038;SDS011;10678;51.002;4.786;2023-03-03T05:50:12;36.03;;;16.33;;
21038;SDS011;10678;51.002;4.786;2023-03-03T05:52:38;37.10;;;18.10;;
21038;SDS011;10678;51.002;4.786;2023-03-03T05:55:04;37.87;;;17.53;;
21038;SDS011;10678;51.002;4.786;2023-03-03T05:57:30;36.17;;;17.50;;
21038;SDS011;10678;51.002;4.786;2023-03-03T05:59:55;35.53;;;16.90;;
21038;SDS011;10678;51.002;4.786;2023-03-03T06:02:21;40.77;;;17.80;;
21038;SDS011;10678;51.002;4.786;2023-03-03T06:04:47;46.03;;;19.07;;
21038;SDS011;10678;51.002;4.786;2023-03-03T06:07:13;43.17;;;18.93;;
21038;SDS011;10678;51.002;4.786;2023-03-03T06:09:38;41.97;;;18.80;;
21038;SDS011;10678;51.002;4.786;2023-03-03T06:12:04;42.90;;;18.57;;
21038;SDS011;10678;51.002;4.786;2023-03-03T06:14:30;40.73;;;18.83;;
21038;SDS011;10678;51.002;4.786;2023-03-03T06:16:55;39.10;;;17.37;;
21038;SDS011;10678;51.002;4.786;2023-03-03T06:19:22;41.93;;;18.17;;
21038;SDS011;10678;51.002;4.786;2023-03-03T06:21:48;33.53;;;17.40;;
21038;SDS011;10678;51.002;4.786;2023-03-03T06:24:14;40.60;;;18.07;;
21038;SDS011;10678;51.002;4.786;2023-03-03T06:26:40;40.93;;;21.03;;
21038;SDS011;10678;51.002;4.786;2023-03-03T06:29:05;40.40;;;18.43;;
21038;SDS011;10678;51.002;4.786;2023-03-03T06:31:31;37.67;;;19.17;;
21038;SDS011;10678;51.002;4.786;2023-03-03T06:33:57;41.60;;;17.20;;
21038;SDS011;10678;51.002;4.786;2023-03-03T06:36:23;37.73;;;18.17;;
21038;SDS011;10678;51.002;4.786;2023-03-03T06:38:49;37.97;;;17.57;;
21038;SDS011;10678;51.002;4.786;2023-03-03T06:41:15;43.13;;;19.60;;
21038;SDS011;10678;51.002;4.786;2023-03-03T06:43:41;43.30;;;17.90;;
21038;SDS011;10678;51.002;4.786;2023-03-03T06:46:07;38.60;;;17.27;;
21038;SDS011;10678;51.002;4.786;2023-03-03T06:48:33;45.83;;;18.10;;
21038;SDS011;10678;51.002;4.786;2023-03-03T06:50:59;45.73;;;19.13;;
21038;SDS011;10678;51.002;4.786;2023-03-03T06:53:26;40.70;;;19.63;;
21038;SDS011;10678;51.002;4.786;2023-03-03T06:55:55;38.87;;;18.17;;
21038;SDS011;10678;51.002;4.786;2023-03-03T06:58:22;39.03;;;17.57;;
21038;SDS011;10678;51.002;4.786;2023-03-03T07:00:58;37.33;;;17.17;;
21038;SDS011;10678;51.002;4.786;2023-03-03T07:03:26;42.13;;;18.23;;
21038;SDS011;10678;51.002;4.786;2023-03-03T07:05:56;40.93;;;17.53;;
21038;SDS011;10678;51.002;4.786;2023-03-03T07:08:22;39.80;;;18.00;;
21038;SDS011;10678;51.002;4.786;2023-03-03T07:10:49;34.90;;;16.53;;
21038;SDS011;10678;51.002;4.786;2023-03-03T07:15:52;36.67;;;15.67;;
21038;SDS011;10678;51.002;4.786;2023-03-03T07:18:22;38.70;;;16.67;;
21038;SDS011;10678;51.002;4.786;2023-03-03T07:21:15;38.30;;;17.80;;
21038;SDS011;10678;51.002;4.786;2023-03-03T07:23:44;36.77;;;16.17;;
21038;SDS011;10678;51.002;4.786;2023-03-03T07:26:11;34.17;;;15.27;;
21038;SDS011;10678;51.002;4.786;2023-03-03T07:28:42;32.63;;;15.97;;
21038;SDS011;10678;51.002;4.786;2023-03-03T07:31:28;35.97;;;16.77;;
21038;SDS011;10678;51.002;4.786;2023-03-03T07:33:58;34.83;;;16.17;;
21038;SDS011;10678;51.002;4.786;2023-03-03T07:36:26;36.23;;;15.37;;
21038;SDS011;10678;51.002;4.786;2023-03-03T07:38:59;38.03;;;15.53;;
21038;SDS011;10678;51.002;4.786;2023-03-03T07:41:29;31.30;;;15.07;;
21038;SDS011;10678;51.002;4.786;2023-03-03T07:44:04;36.37;;;15.87;;
21038;SDS011;10678;51.002;4.786;2023-03-03T07:46:48;34.70;;;15.13;;
21038;SDS011;10678;51.002;4.786;2023-03-03T07:51:56;32.67;;;15.13;;
21038;SDS011;10678;51.002;4.786;2023-03-03T07:54:39;35.70;;;16.47;;
21038;SDS011;10678;51.002;4.786;2023-03-03T07:59:51;36.67;;;16.03;;
21038;SDS011;10678;51.002;4.786;2023-03-03T08:04:47;30.77;;;15.23;;
21038;SDS011;10678;51.002;4.786;2023-03-03T08:07:18;34.53;;;16.17;;
21038;SDS011;10678;51.002;4.786;2023-03-03T08:09:49;29.37;;;13.43;;
21038;SDS011;10678;51.002;4.786;2023-03-03T08:12:35;32.30;;;14.37;;
21038;SDS011;10678;51.002;4.786;2023-03-03T08:17:42;33.37;;;14.40;;
21038;SDS011;10678;51.002;4.786;2023-03-03T08:22:59;30.03;;;14.27;;
21038;SDS011;10678;51.002;4.786;2023-03-03T08:25:25;34.23;;;13.83;;
21038;SDS011;10678;51.002;4.786;2023-03-03T08:27:50;30.97;;;14.10;;
21038;SDS011;10678;51.002;4.786;2023-03-03T08:30:16;33.67;;;14.67;;
21038;SDS011;10678;51.002;4.786;2023-03-03T08:32:41;30.73;;;14.50;;
21038;SDS011;10678;51.002;4.786;2023-03-03T08:35:07;29.23;;;13.60;;
21038;SDS011;10678;51.002;4.786;2023-03-03T08:37:33;28.93;;;14.40;;
21038;SDS011;10678;51.002;4.786;2023-03-03T08:39:59;33.70;;;15.40;;
21038;SDS011;10678;51.002;4.786;2023-03-03T08:42:24;34.77;;;15.10;;
21038;SDS011;10678;51.002;4.786;2023-03-03T08:44:50;32.43;;;14.77;;
21038;SDS011;10678;51.002;4.786;2023-03-03T08:47:15;39.73;;;15.53;;
21038;SDS011;10678;51.002;4.786;2023-03-03T08:49:41;32.80;;;15.90;;
21038;SDS011;10678;51.002;4.786;2023-03-03T08:52:06;30.07;;;14.47;;
21038;SDS011;10678;51.002;4.786;2023-03-03T08:54:32;33.77;;;14.80;;
21038;SDS011;10678;51.002;4.786;2023-03-03T08:56:58;29.53;;;14.27;;
21038;SDS011;10678;51.002;4.786;2023-03-03T08:59:23;32.73;;;14.43;;
21038;SDS011;10678;51.002;4.786;2023-03-03T09:01:49;31.43;;;14.37;;
21038;SDS011;10678;51.002;4.786;2023-03-03T09:04:14;30.97;;;14.90;;
21038;SDS011;10678;51.002;4.786;2023-03-03T09:06:40;29.10;;;13.97;;
21038;SDS011;10678;51.002;4.786;2023-03-03T09:09:05;36.83;;;14.73;;
21038;SDS011;10678;51.002;4.786;2023-03-03T09:11:31;30.57;;;14.17;;
21038;SDS011;10678;51.002;4.786;2023-03-03T09:16:40;29.70;;;13.73;;
21038;SDS011;10678;51.002;4.786;2023-03-03T09:19:27;34.40;;;14.93;;
21038;SDS011;10678;51.002;4.786;2023-03-03T09:21:58;34.47;;;15.10;;
21038;SDS011;10678;51.002;4.786;2023-03-03T09:24:35;35.80;;;15.50;;
21038;SDS011;10678;51.002;4.786;2023-03-03T09:27:01;34.37;;;15.43;;
21038;SDS011;10678;51.002;4.786;2023-03-03T09:29:28;27.17;;;13.27;;
21038;SDS011;10678;51.002;4.786;2023-03-03T09:31:55;34.93;;;15.67;;
21038;SDS011;10678;51.002;4.786;2023-03-03T09:36:57;36.33;;;16.03;;
21038;SDS011;10678;51.002;4.786;2023-03-03T09:39:24;32.33;;;15.67;;
21038;SDS011;10678;51.002;4.786;2023-03-03T10:06:21;32.87;;;14.50;;
21038;SDS011;10678;51.002;4.786;2023-03-03T10:12:12;34.33;;;14.73;;
21038;SDS011;10678;51.002;4.786;2023-03-03T10:17:16;36.53;;;16.33;;
21038;SDS011;10678;51.002;4.786;2023-03-03T10:22:54;29.63;;;13.37;;
21038;SDS011;10678;51.002;4.786;2023-03-03T10:25:37;35.40;;;15.63;;
21038;SDS011;10678;51.002;4.786;2023-03-03T10:33:48;29.47;;;13.13;;
21038;SDS011;10678;51.002;4.786;2023-03-03T10:44:27;26.80;;;12.53;;
21038;SDS011;10678;51.002;4.786;2023-03-03T10:49:39;30.90;;;14.10;;
21038;SDS011;10678;51.002;4.786;2023-03-03T11:03:43;26.67;;;13.20;;
21038;SDS011;10678;51.002;4.786;2023-03-03T11:06:21;28.77;;;13.03;;
21038;SDS011;10678;51.002;4.786;2023-03-03T11:09:12;29.40;;;15.17;;
21038;SDS011;10678;51.002;4.786;2023-03-03T11:14:28;31.07;;;14.03;;
21038;SDS011;10678;51.002;4.786;2023-03-03T11:17:19;26.77;;;12.27;;
21038;SDS011;10678;51.002;4.786;2023-03-03T11:28:37;26.80;;;12.20;;
21038;SDS011;10678;51.002;4.786;2023-03-03T11:31:32;25.80;;;11.93;;
21038;SDS011;10678;51.002;4.786;2023-03-03T11:37:20;24.90;;;11.18;;
21038;SDS011;10678;51.002;4.786;2023-03-03T11:39:51;21.17;;;11.25;;
21038;SDS011;10678;51.002;4.786;2023-03-03T11:42:22;20.73;;;11.55;;
21038;SDS011;10678;51.002;4.786;2023-03-03T11:45:04;24.05;;;12.80;;
21038;SDS011;10678;51.002;4.786;2023-03-03T11:48:00;23.23;;;12.75;;
21038;SDS011;10678;51.002;4.786;2023-03-03T11:50:38;22.50;;;11.25;;
21038;SDS011;10678;51.002;4.786;2023-03-03T11:59:06;25.20;;;12.25;;
21038;SDS011;10678;51.002;4.786;2023-03-03T12:04:52;21.48;;;12.05;;
21038;SDS011;10678;51.002;4.786;2023-03-03T12:10:23;22.55;;;11.93;;
21038;SDS011;10678;51.002;4.786;2023-03-03T12:12:57;22.05;;;11.73;;
21038;SDS011;10678;51.002;4.786;2023-03-03T12:15:30;20.80;;;11.13;;
21038;SDS011;10678;51.002;4.786;2023-03-03T12:18:21;25.48;;;12.55;;
21038;SDS011;10678;51.002;4.786;2023-03-03T12:26:46;23.25;;;12.40;;
21038;SDS011;10678;51.002;4.786;2023-03-03T12:32:06;25.70;;;13.05;;
21038;SDS011;10678;51.002;4.786;2023-03-03T12:40:19;24.45;;;12.32;;
21038;SDS011;10678;51.002;4.786;2023-03-03T12:43:04;26.73;;;12.07;;
21038;SDS011;10678;51.002;4.786;2023-03-03T12:45:58;24.58;;;13.27;;
21038;SDS011;10678;51.002;4.786;2023-03-03T12:48:35;26.23;;;11.63;;
21038;SDS011;10678;51.002;4.786;2023-03-03T12:51:17;23.73;;;11.82;;
21038;SDS011;10678;51.002;4.786;2023-03-03T12:56:38;25.45;;;11.25;;
21038;SDS011;10678;51.002;4.786;2023-03-03T13:07:38;20.27;;;11.55;;
21038;SDS011;10678;51.002;4.786;2023-03-03T13:10:31;22.45;;;11.80;;
21038;SDS011;10678;51.002;4.786;2023-03-03T13:13:30;19.30;;;11.45;;
21038;SDS011;10678;51.002;4.786;2023-03-03T13:16:10;19.50;;;11.40;;
21038;SDS011;10678;51.002;4.786;2023-03-03T13:21:27;21.25;;;12.18;;
21038;SDS011;10678;51.002;4.786;2023-03-03T13:27:18;19.25;;;11.55;;
21038;SDS011;10678;51.002;4.786;2023-03-03T13:30:00;21.85;;;11.63;;
21038;SDS011;10678;51.002;4.786;2023-03-03T13:32:41;22.58;;;12.20;;
21038;SDS011;10678;51.002;4.786;2023-03-03T13:36:29;27.63;;;10.60;;
21038;SDS011;10678;51.002;4.786;2023-03-03T13:38:30;21.17;;;12.00;;
21038;SDS011;10678;51.002;4.786;2023-03-03T13:41:23;20.73;;;10.88;;
21038;SDS011;10678;51.002;4.786;2023-03-03T13:43:55;21.20;;;11.20;;
21038;SDS011;10678;51.002;4.786;2023-03-03T13:49:27;21.23;;;11.13;;
21038;SDS011;10678;51.002;4.786;2023-03-03T13:52:14;22.77;;;10.07;;
21038;SDS011;10678;51.002;4.786;2023-03-03T14:05:24;22.53;;;9.83;;
21038;SDS011;10678;51.002;4.786;2023-03-03T14:16:33;20.70;;;9.57;;
21038;SDS011;10678;51.002;4.786;2023-03-03T14:19:16;18.92;;;9.63;;
21038;SDS011;10678;51.002;4.786;2023-03-03T14:22:25;16.42;;;8.18;;
21038;SDS011;10678;51.002;4.786;2023-03-03T14:25:13;16.45;;;8.98;;
21038;SDS011;10678;51.002;4.786;2023-03-03T14:38:18;17.27;;;8.55;;
21038;SDS011;10678;51.002;4.786;2023-03-03T14:40:47;17.25;;;8.35;;
21038;SDS011;10678;51.002;4.786;2023-03-03T14:43:21;16.38;;;8.15;;
21038;SDS011;10678;51.002;4.786;2023-03-03T14:45:57;16.48;;;7.72;;
21038;SDS011;10678;51.002;4.786;2023-03-03T14:49:01;16.67;;;8.05;;
21038;SDS011;10678;51.002;4.786;2023-03-03T14:51:38;17.13;;;8.25;;
21038;SDS011;10678;51.002;4.786;2023-03-03T14:54:15;16.05;;;8.82;;
21038;SDS011;10678;51.002;4.786;2023-03-03T14:56:59;15.77;;;8.05;;
21038;SDS011;10678;51.002;4.786;2023-03-03T14:59:38;14.35;;;7.18;;
21038;SDS011;10678;51.002;4.786;2023-03-03T15:04:43;12.15;;;6.63;;
21038;SDS011;10678;51.002;4.786;2023-03-03T15:09:50;15.50;;;6.72;;
21038;SDS011;10678;51.002;4.786;2023-03-03T15:12:18;15.45;;;7.60;;
21038;SDS011;10678;51.002;4.786;2023-03-03T15:15:01;13.60;;;6.93;;
21038;SDS011;10678;51.002;4.786;2023-03-03T15:17:42;12.10;;;6.22;;
21038;SDS011;10678;51.002;4.786;2023-03-03T15:26:01;11.23;;;5.80;;
21038;SDS011;10678;51.002;4.786;2023-03-03T15:34:37;15.13;;;7.00;;
21038;SDS011;10678;51.002;4.786;2023-03-03T15:37:13;19.27;;;7.70;;
21038;SDS011;10678;51.002;4.786;2023-03-03T15:45:44;14.65;;;7.22;;
21038;SDS011;10678;51.002;4.786;2023-03-03T15:51:16;15.32;;;7.28;;
21038;SDS011;10678;51.002;4.786;2023-03-03T15:56:43;18.37;;;7.33;;
21038;SDS011;10678;51.002;4.786;2023-03-03T15:59:19;10.47;;;5.23;;
21038;SDS011;10678;51.002;4.786;2023-03-03T16:02:09;10.48;;;5.85;;
21038;SDS011;10678;51.002;4.786;2023-03-03T16:05:11;10.05;;;5.85;;
21038;SDS011;10678;51.002;4.786;2023-03-03T16:11:01;12.93;;;6.13;;
21038;SDS011;10678;51.002;4.786;2023-03-03T16:16:49;13.25;;;6.40;;
21038;SDS011;10678;51.002;4.786;2023-03-03T16:24:42;10.60;;;4.85;;
21038;SDS011;10678;51.002;4.786;2023-03-03T16:27:42;15.23;;;8.00;;
21038;SDS011;10678;51.002;4.786;2023-03-03T16:33:21;14.80;;;6.90;;
21038;SDS011;10678;51.002;4.786;2023-03-03T16:38:49;21.33;;;10.40;;
21038;SDS011;10678;51.002;4.786;2023-03-03T16:41:20;16.08;;;8.00;;
21038;SDS011;10678;51.002;4.786;2023-03-03T16:44:08;16.30;;;8.10;;
21038;SDS011;10678;51.002;4.786;2023-03-03T16:46:40;15.35;;;7.43;;
21038;SDS011;10678;51.002;4.786;2023-03-03T16:51:57;12.75;;;5.75;;
21038;SDS011;10678;51.002;4.786;2023-03-03T16:54:43;13.50;;;6.13;;
21038;SDS011;10678;51.002;4.786;2023-03-03T16:59:49;12.37;;;6.60;;
21038;SDS011;10678;51.002;4.786;2023-03-03T17:20:47;13.80;;;6.07;;
21038;SDS011;10678;51.002;4.786;2023-03-03T17:44:29;10.55;;;5.32;;
21038;SDS011;10678;51.002;4.786;2023-03-03T17:47:03;10.60;;;5.97;;
21038;SDS011;10678;51.002;4.786;2023-03-03T17:50:16;10.70;;;5.80;;
21038;SDS011;10678;51.002;4.786;2023-03-03T18:04:16;13.85;;;6.78;;
21038;SDS011;10678;51.002;4.786;2023-03-03T18:12:37;17.13;;;5.70;;
21038;SDS011;10678;51.002;4.786;2023-03-03T18:21:09;14.90;;;6.93;;
21038;SDS011;10678;51.002;4.786;2023-03-03T18:23:41;15.47;;;7.30;;
21038;SDS011;10678;51.002;4.786;2023-03-03T18:29:04;14.47;;;5.93;;
21038;SDS011;10678;51.002;4.786;2023-03-03T18:34:34;13.77;;;6.70;;
21038;SDS011;10678;51.002;4.786;2023-03-03T18:44:55;14.40;;;6.70;;
21038;SDS011;10678;51.002;4.786;2023-03-03T18:55:42;13.90;;;7.03;;
21038;SDS011;10678;51.002;4.786;2023-03-03T19:06:00;14.43;;;7.70;;
21038;SDS011;10678;51.002;4.786;2023-03-03T19:08:50;14.03;;;7.43;;
21038;SDS011;10678;51.002;4.786;2023-03-03T19:14:14;16.97;;;7.70;;
21038;SDS011;10678;51.002;4.786;2023-03-03T19:16:50;19.47;;;8.50;;
21038;SDS011;10678;51.002;4.786;2023-03-03T19:19:17;18.90;;;8.83;;
21038;SDS011;10678;51.002;4.786;2023-03-03T19:22:18;19.08;;;8.68;;
21038;SDS011;10678;51.002;4.786;2023-03-03T19:30:12;31.13;;;17.57;;
21038;SDS011;10678;51.002;4.786;2023-03-03T19:33:06;14.77;;;7.83;;
21038;SDS011;10678;51.002;4.786;2023-03-03T19:38:14;13.40;;;7.37;;
21038;SDS011;10678;51.002;4.786;2023-03-03T19:43:51;15.47;;;7.57;;
21038;SDS011;10678;51.002;4.786;2023-03-03T19:46:28;13.17;;;7.50;;
21038;SDS011;10678;51.002;4.786;2023-03-03T19:53:12;14.20;;;5.53;;
21038;SDS011;10678;51.002;4.786;2023-03-03T20:06:11;10.97;;;6.73;;
21038;SDS011;10678;51.002;4.786;2023-03-03T20:14:59;10.07;;;5.70;;
21038;SDS011;10678;51.002;4.786;2023-03-03T20:17:19;10.87;;;5.17;;
21038;SDS011;10678;51.002;4.786;2023-03-03T20:20:11;8.27;;;5.03;;
21038;SDS011;10678;51.002;4.786;2023-03-03T20:25:39;8.50;;;4.97;;
21038;SDS011;10678;51.002;4.786;2023-03-03T20:30:52;8.40;;;5.70;;
21038;SDS011;10678;51.002;4.786;2023-03-03T20:39:19;9.00;;;5.43;;
21038;SDS011;10678;51.002;4.786;2023-03-03T20:57:50;11.93;;;5.67;;
21038;SDS011;10678;51.002;4.786;2023-03-03T21:00:32;6.40;;;4.20;;
21038;SDS011;10678;51.002;4.786;2023-03-03T21:05:52;9.43;;;5.60;;
21038;SDS011;10678;51.002;4.786;2023-03-03T21:08:21;10.77;;;5.57;;
21038;SDS011;10678;51.002;4.786;2023-03-03T21:11:03;10.77;;;6.43;;
21038;SDS011;10678;51.002;4.786;2023-03-03T21:13:39;13.33;;;6.20;;
21038;SDS011;10678;51.002;4.786;2023-03-03T21:16:16;10.03;;;6.33;;
21038;SDS011;10678;51.002;4.786;2023-03-03T21:19:01;9.33;;;5.97;;
21038;SDS011;10678;51.002;4.786;2023-03-03T21:21:50;9.90;;;6.67;;
21038;SDS011;10678;51.002;4.786;2023-03-03T21:24:16;11.13;;;6.53;;
21038;SDS011;10678;51.002;4.786;2023-03-03T21:26:47;13.03;;;6.70;;